»·PEaware :: N925NG KSBA-KSBP

N925NG :: KSBA-KSBP

FLIGHT INFORMATION

Flight Status: Arrived
Operator: Privately registered:
United States
More flights under this callsign
Pilot: Nuno G. (17304)
Aircraft: MOONEY M-20 201 202 205 220 ATS MSE
(M20P)
More flights by this aircraft type
Origin: KSBA Santa Barbara Mun
United States
Destination: KSBP San Luis Co Regl
United States
More flights between these airports :: More routes between these airports
Route: +GVO V27 MQO
File this flight plan on PilotEdge
Remarks:
Altitude:
(Current/Filed)
6,000ft
Speed:
(Current/Filed)
200kts
Departed: 09-Feb-19 12:08 PM
Arrived: 09-Feb-19 12:48 PM
Distance/Time
Traveled:
62nm/0:40
Distance/Time
To Go:
Arrived

Flight Plot

Page will automatically refresh every two minutes.


Map Options




Map Legend


Flown Route
Filed Route
Departure Airport
Arrival Airport
Navaid (VOR, NDB)
Fix

Horizontal Profiles

Position Reports

Time Latitude Longitude Heading Altitude Ground
Speed
09-Feb-19 11:51 34.424843 -119.837097 115 15ft 0kts
09-Feb-19 11:52 34.424843 -119.837097 115 15ft 0kts
09-Feb-19 11:53 34.424843 -119.837097 115 15ft 0kts
09-Feb-19 11:54 34.424843 -119.837097 115 15ft 0kts
09-Feb-19 11:55 34.424843 -119.837097 115 15ft 0kts
09-Feb-19 11:56 34.424843 -119.837097 115 15ft 0kts
09-Feb-19 11:57 34.424843 -119.837097 115 15ft 0kts
09-Feb-19 11:58 34.424843 -119.837097 115 15ft 0kts
09-Feb-19 11:59 34.424843 -119.837097 115 15ft 0kts
09-Feb-19 12:00 34.425002 -119.837054 294 15ft 0kts
09-Feb-19 12:01 34.425002 -119.837054 294 15ft 0kts
09-Feb-19 12:02 34.425007 -119.837067 294 15ft 0kts
09-Feb-19 12:03 34.425125 -119.837499 284 15ft 6kts
09-Feb-19 12:04 34.426752 -119.836759 89 15ft 10kts
09-Feb-19 12:05 34.427121 -119.834605 358 15ft 0kts
09-Feb-19 12:06 34.427252 -119.834620 351 15ft 5kts
09-Feb-19 12:07 34.427636 -119.846513 265 67ft 87kts
09-Feb-19 12:08 34.425644 -119.881908 264 900ft 122kts
09-Feb-19 12:09 34.422549 -119.924640 265 1906ft 128kts
09-Feb-19 12:10 34.418955 -119.967223 265 2905ft 126kts
09-Feb-19 12:11 34.414887 -120.016509 266 3019ft 164kts
09-Feb-19 12:12 34.411486 -120.073087 273 3016ft 168kts
09-Feb-19 12:13 34.447326 -120.086666 356 3839ft 133kts
09-Feb-19 12:14 34.482246 -120.088548 350 4844ft 131kts
09-Feb-19 12:15 34.519633 -120.090843 351 5845ft 138kts
09-Feb-19 12:16 34.556779 -120.110869 315 6019ft 168kts
09-Feb-19 12:17 34.595239 -120.149244 319 6017ft 183kts
09-Feb-19 12:18 34.636361 -120.187605 320 6017ft 186kts
09-Feb-19 12:19 34.677763 -120.225488 320 6017ft 186kts
09-Feb-19 12:20 34.718291 -120.262230 320 6016ft 169kts
09-Feb-19 12:21 34.753909 -120.296445 316 6016ft 158kts
09-Feb-19 12:22 34.788154 -120.331702 318 6009ft 170kts
09-Feb-19 12:23 34.826405 -120.368312 320 6007ft 177kts
09-Feb-19 12:24 34.865557 -120.405292 319 6005ft 178kts
09-Feb-19 12:25 34.902259 -120.441344 319 6007ft 164kts
09-Feb-19 12:26 34.937664 -120.475934 319 6007ft 163kts
09-Feb-19 12:27 34.974687 -120.508228 330 6008ft 163kts
09-Feb-19 12:28 35.015181 -120.535368 320 6007ft 171kts
09-Feb-19 12:29 35.053578 -120.571590 320 6007ft 176kts
09-Feb-19 12:30 35.092611 -120.608341 321 6007ft 178kts
09-Feb-19 12:31 35.134492 -120.637571 11 6000ft 187kts
09-Feb-19 12:32 35.140187 -120.580035 110 6007ft 201kts
09-Feb-19 12:33 35.114517 -120.515456 133 5315ft 218kts
09-Feb-19 12:34 35.068514 -120.467385 141 4681ft 216kts
09-Feb-19 12:35 35.022892 -120.421256 142 4209ft 204kts
09-Feb-19 12:36 34.980580 -120.378331 143 4211ft 193kts
09-Feb-19 12:37 34.987193 -120.337778 340 4202ft 168kts
09-Feb-19 12:38 35.027231 -120.365980 329 4208ft 166kts
09-Feb-19 12:39 35.070217 -120.390148 346 4005ft 177kts
09-Feb-19 12:40 35.109627 -120.423527 310 4007ft 168kts
09-Feb-19 12:41 35.137169 -120.469165 305 3306ft 158kts
09-Feb-19 12:42 35.160123 -120.508042 304 2883ft 123kts
09-Feb-19 12:43 35.182538 -120.545176 304 2220ft 151kts
09-Feb-19 12:44 35.204303 -120.583071 302 1374ft 108kts
09-Feb-19 12:45 35.217979 -120.606887 301 871ft 84kts
09-Feb-19 12:46 35.231254 -120.630119 302 279ft 83kts
09-Feb-19 12:47 35.237803 -120.642777 253 185ft 0kts
09-Feb-19 12:48 35.237466 -120.643724 267 185ft 19kts
09-Feb-19 12:49 35.237945 -120.644990 102 184ft 0kts
09-Feb-19 12:50 35.237945 -120.644990 102 184ft 0kts
09-Feb-19 12:51 35.236874 -120.636808 128 189ft 0kts
09-Feb-19 12:52 35.236874 -120.636808 128 189ft 0kts
09-Feb-19 12:53 35.236874 -120.636808 128 189ft 0kts
09-Feb-19 12:54 35.236874 -120.636808 128 189ft 0kts
09-Feb-19 12:55 35.236874 -120.636808 128 189ft 0kts
09-Feb-19 12:56 35.236874 -120.636808 128 189ft 0kts
09-Feb-19 12:57 35.236874 -120.636808 128 189ft 0kts
09-Feb-19 12:58 35.236874 -120.636808 128 189ft 0kts

Navigation Log

Ident Type
Flight plan parsing failed, navigation log unavailable